ESGT/THN METAR and TAF weather

Enter ICAO airport designator
Station Type Date Time Source
ESGT METAR 2020/04/02 20:50 UTC NOAA

ESGT 022050Z AUTO 25019G31KT 9999 NCD 04/M03 Q0984


Station Type Date Time Source
ESGT Decoded METAR 2020/04/02 20:50 UTC NOAA

Trollhattan Private , Sweden (ESGT) 58-19N 012-21E
Apr 02, 2020 - 04:50 PM EDT / 2020.04.02 2050 UTC
Wind: from the WSW (250 degrees) at 22 MPH (19 KT) gusting to 36 MPH (31 KT):0
Visibility: greater than 7 mile(s):0
Temperature: 39 F (4 C)
Dew Point: 26 F (-3 C)
Relative Humidity: 60%
Pressure (altimeter): 29.06 in. Hg (0984 hPa)
ob: ESGT 022050Z AUTO 25019G31KT 9999 NCD 04/M03 Q0984
cycle: 21

Station Type Date Time Source
ESGT TAF 2016/08/12 05:58 UTC NOAA

TAF ESGT 120430Z 1205/1224 18007KT 9999 FEW030

Example: see airport list